createdAt,value
2022-10-11T00:00:28.544Z,25.95
2022-10-11T00:03:13.317Z,30.58
2022-10-11T00:05:57.594Z,25.02
2022-10-11T00:08:43.373Z,27.85
2022-10-11T00:11:27.813Z,27.00
2022-10-11T00:14:14.219Z,24.73
2022-10-11T00:16:58.463Z,23.98
2022-10-11T00:19:56.272Z,26.17
2022-10-11T00:22:45.992Z,18.98
2022-10-11T00:25:29.970Z,20.20
2022-10-11T00:28:18.844Z,17.98
2022-10-11T00:31:09.448Z,21.40
2022-10-11T00:33:54.959Z,19.52
2022-10-11T00:36:38.890Z,21.02
2022-10-11T00:39:25.279Z,21.17
2022-10-11T00:42:20.923Z,18.95
2022-10-11T00:45:30.016Z,17.83
2022-10-11T00:48:31.474Z,17.38
2022-10-11T00:51:41.119Z,16.30
2022-10-11T00:54:33.142Z,15.63
2022-10-11T00:57:26.560Z,22.38
2022-10-11T01:00:14.039Z,23.35
2022-10-11T01:02:59.132Z,17.48
2022-10-11T01:05:43.606Z,28.45
2022-10-11T01:08:30.141Z,34.05
2022-10-11T01:11:17.659Z,26.85
2022-10-11T01:14:36.385Z,24.38
2022-10-11T01:17:24.944Z,21.05
2022-10-11T01:20:43.930Z,17.27
2022-10-11T01:23:48.627Z,25.80
2022-10-11T01:26:51.175Z,22.38
2022-10-11T01:30:26.378Z,25.20
2022-10-11T01:33:51.798Z,23.25
2022-10-11T01:36:50.506Z,25.77
2022-10-11T01:39:59.908Z,25.35
2022-10-11T01:42:44.881Z,30.08
2022-10-11T01:45:29.510Z,30.85
2022-10-11T01:48:15.862Z,28.75
2022-10-11T01:51:00.849Z,27.27
2022-10-11T01:54:56.577Z,22.92
2022-10-11T01:58:11.749Z,20.52
2022-10-11T02:01:24.333Z,22.77
2022-10-11T02:04:28.876Z,21.92
2022-10-11T02:07:41.575Z,22.20
2022-10-11T02:11:00.878Z,16.52
2022-10-11T02:13:53.754Z,21.65
2022-10-11T02:16:56.902Z,19.98
2022-10-11T02:19:53.222Z,21.77
2022-10-11T02:22:47.888Z,15.95
2022-10-11T02:25:36.268Z,24.25
2022-10-11T02:28:23.889Z,39.30
2022-10-11T02:31:09.255Z,32.53
2022-10-11T02:34:00.967Z,33.53
2022-10-11T02:37:16.089Z,39.70
2022-10-11T02:40:08.633Z,28.98
2022-10-11T02:43:01.687Z,32.40
2022-10-11T02:46:00.759Z,33.20
2022-10-11T02:48:44.044Z,29.77
2022-10-11T02:51:32.489Z,38.55
2022-10-11T02:54:19.868Z,36.03
2022-10-11T02:57:07.968Z,33.20
2022-10-11T02:59:52.081Z,29.88
2022-10-11T03:02:40.891Z,31.25
2022-10-11T03:05:25.057Z,30.20
2022-10-11T03:08:14.614Z,31.17
2022-10-11T03:10:59.133Z,30.73
2022-10-11T03:13:49.160Z,24.20
2022-10-11T03:16:38.009Z,34.33
2022-10-11T03:19:23.697Z,26.67
2022-10-11T03:22:06.432Z,33.75
2022-10-11T03:24:50.670Z,25.17
2022-10-11T03:27:35.556Z,27.70
2022-10-11T03:30:21.068Z,28.77
2022-10-11T03:33:05.940Z,21.13
2022-10-11T03:35:51.455Z,22.17
2022-10-11T03:38:36.439Z,17.70
2022-10-11T03:41:21.665Z,19.00
2022-10-11T03:44:09.042Z,22.10
2022-10-11T03:46:52.921Z,22.65
2022-10-11T03:49:38.840Z,27.48
2022-10-11T03:52:27.707Z,20.42
2022-10-11T03:55:12.056Z,21.27
2022-10-11T03:57:54.056Z,22.85
2022-10-11T04:00:37.962Z,20.13
2022-10-11T04:03:23.333Z,16.05
2022-10-11T04:06:09.522Z,14.80
2022-10-11T04:08:53.465Z,18.38
2022-10-11T04:11:39.850Z,16.55
2022-10-11T04:14:24.611Z,19.15
2022-10-11T04:17:09.714Z,18.38
2022-10-11T04:19:53.238Z,17.60
2022-10-11T04:22:39.440Z,17.02
2022-10-11T04:25:24.229Z,17.15
2022-10-11T04:28:10.298Z,13.55
2022-10-11T04:30:54.575Z,12.48
2022-10-11T04:33:39.800Z,20.40
2022-10-11T04:36:25.017Z,14.43
2022-10-11T04:39:09.861Z,12.73
2022-10-11T04:41:53.913Z,16.33
2022-10-11T04:44:38.276Z,10.90
2022-10-11T04:47:23.705Z,14.27
2022-10-11T04:50:09.359Z,11.68
2022-10-11T04:52:53.767Z,12.45
2022-10-11T04:55:39.224Z,13.10
2022-10-11T04:58:23.602Z,13.77
2022-10-11T05:01:10.522Z,13.15
2022-10-11T05:03:58.064Z,15.43
2022-10-11T05:06:41.101Z,10.32
2022-10-11T05:09:26.672Z,12.55
2022-10-11T05:12:10.945Z,9.85
2022-10-11T05:14:57.535Z,14.60
2022-10-11T05:17:41.087Z,17.13
2022-10-11T05:20:24.734Z,17.60
2022-10-11T05:23:12.347Z,14.30
2022-10-11T05:25:58.385Z,14.52
2022-10-11T05:28:42.831Z,8.93
2022-10-11T05:31:27.370Z,10.40
2022-10-11T05:34:10.511Z,15.32
2022-10-11T05:36:55.336Z,23.25
2022-10-11T05:39:41.327Z,15.18
2022-10-11T05:42:26.105Z,15.43
2022-10-11T05:45:10.738Z,17.40
2022-10-11T05:47:56.428Z,15.82
2022-10-11T05:50:43.356Z,15.07
2022-10-11T05:53:29.195Z,14.45
2022-10-11T05:56:22.813Z,17.48
2022-10-11T05:59:08.271Z,12.27
2022-10-11T06:01:53.369Z,14.60
2022-10-11T06:04:41.522Z,13.40
2022-10-11T06:07:25.617Z,17.80
2022-10-11T06:10:11.847Z,15.23
2022-10-11T06:13:00.415Z,23.60
2022-10-11T06:16:00.039Z,21.88
2022-10-11T06:19:00.283Z,18.52
2022-10-11T06:22:13.343Z,17.80
2022-10-11T06:25:20.778Z,11.60
2022-10-11T06:28:21.524Z,13.77
2022-10-11T06:31:25.537Z,18.50
2022-10-11T06:34:22.994Z,15.40
2022-10-11T06:37:29.026Z,14.18
2022-10-11T06:40:28.438Z,14.07
2022-10-11T06:43:30.717Z,10.00
2022-10-11T06:46:58.633Z,15.45
2022-10-11T06:49:59.200Z,12.73
2022-10-11T06:52:59.072Z,14.25
2022-10-11T06:55:56.696Z,14.82
2022-10-11T06:59:01.755Z,18.45
2022-10-11T07:02:03.564Z,18.98
2022-10-11T07:04:59.546Z,14.93
2022-10-11T07:07:59.306Z,13.82
2022-10-11T07:11:27.653Z,13.40
2022-10-11T07:14:24.915Z,21.10
2022-10-11T07:17:37.275Z,12.43
2022-10-11T07:20:52.236Z,12.75
2022-10-11T07:24:22.518Z,11.20
2022-10-11T07:27:24.655Z,14.02
2022-10-11T07:30:22.905Z,15.90
2022-10-11T07:33:29.308Z,12.55
2022-10-11T07:36:30.327Z,11.07
2022-10-11T07:39:29.763Z,15.23
2022-10-11T07:42:35.883Z,14.60
2022-10-11T07:45:35.411Z,12.15
2022-10-11T07:48:43.154Z,8.32
2022-10-11T07:51:43.900Z,7.82
2022-10-11T07:54:42.338Z,14.98
2022-10-11T07:57:39.256Z,13.32
2022-10-11T08:00:37.096Z,15.45
2022-10-11T08:03:40.974Z,10.50
2022-10-11T08:06:41.672Z,16.90
2022-10-11T08:09:47.137Z,21.23
2022-10-11T08:12:45.032Z,11.50
2022-10-11T08:15:53.647Z,12.10
2022-10-11T08:18:56.395Z,10.57
2022-10-11T08:21:57.122Z,12.18
2022-10-11T08:25:06.337Z,12.23
2022-10-11T08:28:06.803Z,9.88
2022-10-11T08:31:19.582Z,11.80
2022-10-11T08:34:28.847Z,14.32
2022-10-11T08:37:29.646Z,9.60
2022-10-11T08:40:35.413Z,10.80
2022-10-11T08:43:48.591Z,13.18
2022-10-11T08:47:05.917Z,11.65
2022-10-11T08:49:57.296Z,15.23
2022-10-11T08:52:57.547Z,14.43
2022-10-11T08:55:55.019Z,12.05
2022-10-11T08:59:17.226Z,21.05
2022-10-11T09:02:38.949Z,16.15
2022-10-11T09:05:44.132Z,16.00
2022-10-11T09:09:01.977Z,14.57
2022-10-11T09:12:20.344Z,12.20
2022-10-11T09:15:17.390Z,15.18
2022-10-11T09:18:35.697Z,63.00
2022-10-11T09:21:49.081Z,22.73
2022-10-11T09:24:39.171Z,23.90
2022-10-11T09:28:02.239Z,13.63
2022-10-11T09:30:54.765Z,19.42
2022-10-11T09:33:52.089Z,16.42
2022-10-11T09:37:19.422Z,14.95
2022-10-11T09:40:21.995Z,12.93
2022-10-11T09:43:12.655Z,15.40
2022-10-11T09:46:02.595Z,18.90
2022-10-11T09:48:55.446Z,14.73
2022-10-11T09:51:51.341Z,13.88
2022-10-11T09:54:46.105Z,11.82
2022-10-11T09:57:39.852Z,14.13
2022-10-11T10:00:34.659Z,22.00
2022-10-11T10:03:39.407Z,17.38
2022-10-11T10:06:29.745Z,14.55
2022-10-11T10:09:29.732Z,14.00
2022-10-11T10:12:29.068Z,14.77
2022-10-11T10:15:22.589Z,19.55
2022-10-11T10:18:24.968Z,12.38
2022-10-11T10:21:17.061Z,21.63
2022-10-11T10:24:38.144Z,10.13
2022-10-11T10:27:30.509Z,14.40
2022-10-11T10:30:21.731Z,17.08
2022-10-11T10:33:14.402Z,15.82
2022-10-11T10:36:17.978Z,17.45
2022-10-11T10:39:27.234Z,13.45
2022-10-11T10:42:19.567Z,14.57
2022-10-11T10:45:21.802Z,18.52
2022-10-11T10:49:01.731Z,18.75
2022-10-11T10:51:55.240Z,10.00
2022-10-11T10:54:56.058Z,18.10
2022-10-11T10:58:15.146Z,16.25
2022-10-11T11:01:28.402Z,16.73
2022-10-11T11:04:24.312Z,14.75
2022-10-11T11:07:39.975Z,10.38
2022-10-11T11:10:55.783Z,14.70
2022-10-11T11:14:14.553Z,10.60
2022-10-11T11:17:27.093Z,14.35
2022-10-11T11:20:30.431Z,17.25
2022-10-11T11:23:24.748Z,15.95
2022-10-11T11:26:44.172Z,14.93
2022-10-11T11:29:55.740Z,10.10
2022-10-11T11:33:03.909Z,13.50
2022-10-11T11:35:58.588Z,13.35
2022-10-11T11:39:09.219Z,15.82
2022-10-11T11:42:15.895Z,20.33
2022-10-11T11:45:15.072Z,19.60
2022-10-11T11:48:08.780Z,20.27
2022-10-11T11:51:05.970Z,17.75
2022-10-11T11:54:06.106Z,12.20
2022-10-11T11:57:17.139Z,14.00
2022-10-11T12:00:22.894Z,12.07
2022-10-11T12:03:17.209Z,18.83
2022-10-11T12:06:16.206Z,12.48
2022-10-11T12:09:24.809Z,15.63
2022-10-11T12:12:38.311Z,15.02
2022-10-11T12:15:28.370Z,13.52
2022-10-11T12:18:19.174Z,18.70
2022-10-11T12:21:41.061Z,11.75
2022-10-11T12:24:55.372Z,15.10
2022-10-11T12:27:49.619Z,12.90
2022-10-11T12:30:52.285Z,16.83
2022-10-11T12:33:43.099Z,15.88
2022-10-11T12:36:41.422Z,13.20
2022-10-11T12:39:50.446Z,8.43
2022-10-11T12:42:42.263Z,8.77
2022-10-11T12:45:34.605Z,12.48
2022-10-11T12:48:50.913Z,10.38
2022-10-11T12:52:01.803Z,7.65
2022-10-11T12:55:00.808Z,13.57
2022-10-11T12:58:24.863Z,8.52
2022-10-11T13:01:19.593Z,9.65
2022-10-11T13:04:12.816Z,13.45
2022-10-11T13:07:08.557Z,8.70
2022-10-11T13:09:59.470Z,11.00
2022-10-11T13:12:50.240Z,7.80
2022-10-11T13:15:43.807Z,8.85
2022-10-11T13:18:34.071Z,10.23
2022-10-11T13:21:30.971Z,13.40
2022-10-11T13:24:22.728Z,11.25
2022-10-11T13:27:27.568Z,12.32
2022-10-11T13:30:26.450Z,11.65
2022-10-11T13:33:39.933Z,9.80
2022-10-11T13:36:30.974Z,9.85
2022-10-11T13:39:31.426Z,10.48
2022-10-11T13:42:27.199Z,8.80
2022-10-11T13:45:28.259Z,8.25
2022-10-11T13:48:19.209Z,9.85
2022-10-11T13:51:34.624Z,9.52
2022-10-11T13:54:25.516Z,9.50
2022-10-11T13:57:16.077Z,7.50
2022-10-11T14:00:20.822Z,9.52
2022-10-11T14:03:17.491Z,8.48
2022-10-11T14:06:08.197Z,10.27
2022-10-11T14:09:00.427Z,9.05
2022-10-11T14:11:51.274Z,9.23
2022-10-11T14:14:43.875Z,7.20
2022-10-11T14:17:47.887Z,9.77
2022-10-11T14:20:41.975Z,9.40
2022-10-11T14:23:32.333Z,23.75
2022-10-11T14:26:24.011Z,28.83
2022-10-11T14:29:31.120Z,19.48
2022-10-11T14:32:32.198Z,19.65
2022-10-11T14:35:33.243Z,17.27
2022-10-11T14:38:23.746Z,14.23
2022-10-11T14:41:14.116Z,11.00
2022-10-11T14:44:04.341Z,13.77
2022-10-11T14:46:54.991Z,11.88
2022-10-11T14:49:45.507Z,12.57
2022-10-11T14:52:38.039Z,13.52
2022-10-11T14:55:28.732Z,12.63
2022-10-11T14:58:19.033Z,9.82
2022-10-11T15:01:11.351Z,9.48
2022-10-11T15:04:01.709Z,8.77
2022-10-11T15:06:52.156Z,11.05
2022-10-11T15:09:42.692Z,11.10
2022-10-11T15:12:32.875Z,10.93
2022-10-11T15:15:27.026Z,10.07
2022-10-11T15:18:18.571Z,7.07
2022-10-11T15:21:08.953Z,10.07
2022-10-11T15:24:02.013Z,9.02
2022-10-11T15:26:52.059Z,11.82
2022-10-11T15:29:42.020Z,7.88
2022-10-11T15:32:31.938Z,7.13
2022-10-11T15:35:24.442Z,10.77
2022-10-11T15:38:32.127Z,8.43
2022-10-11T15:41:22.302Z,12.45
2022-10-11T15:44:11.863Z,10.27
2022-10-11T15:47:01.843Z,7.43
2022-10-11T15:49:51.244Z,10.02
2022-10-11T15:52:40.967Z,10.93
2022-10-11T15:55:32.034Z,9.48
2022-10-11T15:58:26.149Z,10.27
2022-10-11T16:01:20.952Z,8.52
2022-10-11T16:04:11.260Z,8.68
2022-10-11T16:07:00.760Z,8.20
2022-10-11T16:09:50.343Z,8.65
2022-10-11T16:12:39.650Z,7.78
2022-10-11T16:15:29.146Z,7.75
2022-10-11T16:18:21.967Z,7.40
2022-10-11T16:21:31.642Z,12.00
2022-10-11T16:24:21.302Z,7.93
2022-10-11T16:27:18.583Z,7.93
2022-10-11T16:30:08.929Z,8.88
2022-10-11T16:33:05.709Z,7.43
2022-10-11T16:36:15.554Z,8.43
2022-10-11T16:39:22.250Z,8.63
2022-10-11T16:42:11.900Z,8.15
2022-10-11T16:45:02.201Z,10.20
2022-10-11T16:47:51.936Z,9.00
2022-10-11T16:50:41.428Z,10.32
2022-10-11T16:53:31.028Z,11.25
2022-10-11T16:56:23.515Z,13.23
2022-10-11T16:59:13.308Z,12.07
2022-10-11T17:02:03.325Z,10.25
2022-10-11T17:04:57.634Z,9.75
2022-10-11T17:07:49.948Z,10.02
2022-10-11T17:10:45.312Z,10.38
2022-10-11T17:13:35.874Z,9.52
2022-10-11T17:16:25.202Z,9.65
2022-10-11T17:19:16.678Z,8.80
2022-10-11T17:22:06.340Z,11.35
2022-10-11T17:24:55.768Z,9.38
2022-10-11T17:27:45.236Z,11.07
2022-10-11T17:30:34.946Z,11.00
2022-10-11T17:33:24.592Z,11.43
2022-10-11T17:36:17.562Z,11.15
2022-10-11T17:39:11.025Z,9.88
2022-10-11T17:42:05.886Z,11.60
2022-10-11T17:44:55.282Z,12.98
2022-10-11T17:47:44.468Z,11.25
2022-10-11T17:50:36.289Z,9.63
2022-10-11T17:53:27.033Z,10.40
2022-10-11T17:56:20.253Z,9.57
2022-10-11T17:59:22.172Z,8.55
2022-10-11T18:02:11.876Z,11.48
2022-10-11T18:05:04.281Z,14.57
2022-10-11T18:07:56.983Z,8.25
2022-10-11T18:10:47.744Z,11.07
2022-10-11T18:13:43.577Z,13.77
2022-10-11T18:16:35.723Z,17.35
2022-10-11T18:19:25.308Z,14.15
2022-10-11T18:22:15.978Z,17.38
2022-10-11T18:25:08.544Z,12.02
2022-10-11T18:27:58.046Z,14.05
2022-10-11T18:30:49.275Z,11.85
2022-10-11T18:33:39.134Z,13.65
2022-10-11T18:36:30.715Z,11.27
2022-10-11T18:39:22.276Z,13.13
2022-10-11T18:42:11.516Z,14.77
2022-10-11T18:45:01.424Z,11.85
2022-10-11T18:47:53.982Z,17.02
2022-10-11T18:50:45.785Z,14.73
2022-10-11T18:53:41.110Z,16.75
2022-10-11T18:56:31.735Z,15.02
2022-10-11T18:59:21.316Z,12.93
2022-10-11T19:02:13.944Z,13.13
2022-10-11T19:05:03.224Z,14.13
2022-10-11T19:07:53.303Z,10.60
2022-10-11T19:10:45.514Z,12.50
2022-10-11T19:13:36.033Z,12.00
2022-10-11T19:16:26.864Z,9.82
2022-10-11T19:19:16.902Z,10.50
2022-10-11T19:22:07.137Z,10.77
2022-10-11T19:24:56.300Z,13.13
2022-10-11T19:27:45.973Z,11.32
2022-10-11T19:30:35.021Z,16.63
2022-10-11T19:33:24.955Z,10.80
2022-10-11T19:36:17.897Z,11.18
2022-10-11T19:39:07.899Z,11.13
2022-10-11T19:41:57.419Z,13.52
2022-10-11T19:44:47.261Z,12.65
2022-10-11T19:47:42.246Z,11.02
2022-10-11T19:50:33.086Z,9.85
2022-10-11T19:53:21.784Z,13.32
2022-10-11T19:56:14.477Z,11.68
2022-10-11T19:59:04.711Z,12.10
2022-10-11T20:01:54.916Z,14.77
2022-10-11T20:04:52.445Z,14.73
2022-10-11T20:07:42.116Z,14.40
2022-10-11T20:10:31.220Z,12.10
2022-10-11T20:13:20.565Z,14.35
2022-10-11T20:16:12.795Z,18.33
2022-10-11T20:19:03.056Z,14.43
2022-10-11T20:22:14.787Z,11.68
2022-10-11T20:25:04.734Z,13.00
2022-10-11T20:27:54.891Z,15.52
2022-10-11T20:30:45.009Z,14.48
2022-10-11T20:33:34.729Z,17.70
2022-10-11T20:36:24.900Z,18.38
2022-10-11T20:39:14.695Z,21.30
2022-10-11T20:42:04.371Z,17.75
2022-10-11T20:44:53.893Z,17.92
2022-10-11T20:47:43.273Z,16.77
2022-10-11T20:50:32.555Z,18.00
2022-10-11T20:53:24.738Z,16.70
2022-10-11T20:56:15.541Z,18.55
2022-10-11T20:59:05.226Z,18.33
2022-10-11T21:01:54.303Z,16.83
2022-10-11T21:04:45.072Z,16.88
2022-10-11T21:07:34.859Z,19.15
2022-10-11T21:10:24.564Z,21.08
2022-10-11T21:13:14.957Z,19.98
2022-10-11T21:16:15.502Z,22.58
2022-10-11T21:19:05.697Z,21.30
2022-10-11T21:21:55.718Z,26.90
2022-10-11T21:24:45.208Z,30.35
2022-10-11T21:27:34.679Z,26.45
2022-10-11T21:30:24.286Z,28.10
2022-10-11T21:33:13.347Z,31.08
2022-10-11T21:36:10.945Z,30.77
2022-10-11T21:39:00.678Z,25.88
2022-10-11T21:41:50.212Z,32.92
2022-10-11T21:44:44.757Z,29.38
2022-10-11T21:47:39.198Z,27.85
2022-10-11T21:50:29.910Z,27.58
2022-10-11T21:53:19.167Z,32.53
2022-10-11T21:56:09.643Z,31.08
2022-10-11T21:58:59.353Z,32.75
2022-10-11T22:01:48.502Z,32.08
2022-10-11T22:04:37.996Z,29.73
2022-10-11T22:07:27.182Z,31.10
2022-10-11T22:10:16.597Z,29.33
2022-10-11T22:13:06.373Z,26.35
2022-10-11T22:15:57.297Z,24.38
2022-10-11T22:18:46.814Z,24.50
2022-10-11T22:21:36.049Z,30.00
2022-10-11T22:24:25.443Z,27.42
2022-10-11T22:27:14.822Z,30.48
2022-10-11T22:30:04.355Z,26.13
2022-10-11T22:32:53.459Z,26.05
2022-10-11T22:35:45.461Z,25.67
2022-10-11T22:38:38.071Z,26.02
2022-10-11T22:41:27.227Z,25.00
2022-10-11T22:44:17.681Z,30.27
2022-10-11T22:47:07.924Z,26.73
2022-10-11T22:49:57.988Z,24.70
2022-10-11T22:52:47.779Z,22.48
2022-10-11T22:55:37.767Z,17.70
2022-10-11T22:58:44.669Z,21.77
2022-10-11T23:01:37.072Z,15.95
2022-10-11T23:04:26.258Z,17.75
2022-10-11T23:07:16.953Z,17.63
2022-10-11T23:10:07.124Z,18.52
2022-10-11T23:12:56.734Z,16.63
2022-10-11T23:15:45.913Z,19.77
2022-10-11T23:18:35.693Z,23.95
2022-10-11T23:21:24.967Z,22.48
2022-10-11T23:24:14.605Z,25.80
2022-10-11T23:27:07.496Z,24.70
2022-10-11T23:29:56.470Z,21.98
2022-10-11T23:32:45.618Z,26.75
2022-10-11T23:35:38.280Z,25.05
2022-10-11T23:38:30.069Z,30.48
2022-10-11T23:41:22.878Z,31.58
2022-10-11T23:44:13.273Z,34.22
2022-10-11T23:47:03.136Z,33.50
2022-10-11T23:49:53.735Z,29.40
2022-10-11T23:52:43.891Z,29.48
2022-10-11T23:55:38.145Z,28.08
2022-10-11T23:58:27.258Z,30.65
